Time;durP1;ratioP1;P1;durP2;ratioP2;P2;SDS_P1;SDS_P2;PMS_P1;PMS_P2;Temp;Humidity;BMP_temperature;BMP_pressure;BME280_temperature;BME280_humidity;BME280_pressure;Samples;Min_cycle;Max_cycle;Signal;HPM_P1;HPM_P2
2022/09/13 00:01:48;;;;;;;10.90;3.40;;;;;;;;;;4954255;28;20093;-75
2022/09/13 00:04:14;;;;;;;5.85;3.40;;;;;;;;;;4956450;29;20027;-74
2022/09/13 00:06:40;;;;;;;4.40;3.10;;;;;;;;;;4957930;28;20081;-77
2022/09/13 00:09:06;;;;;;;6.35;3.40;;;;;;;;;;4959447;28;20027;-76
2022/09/13 00:11:32;;;;;;;7.10;3.50;;;;;;;;;;4957627;28;20027;-75
2022/09/13 00:13:58;;;;;;;11.32;3.55;;;;;;;;;;4960171;28;20038;-75
2022/09/13 00:16:25;;;;;;;6.38;2.97;;;;;;;;;;4958516;29;20031;-76
2022/09/13 00:18:51;;;;;;;9.00;2.90;;;;;;;;;;4955129;28;20031;-74
2022/09/13 00:21:18;;;;;;;5.90;3.30;;;;;;;;;;4955552;28;20050;-74
2022/09/13 00:23:45;;;;;;;6.50;3.47;;;;;;;;;;4966451;29;20028;-74
2022/09/13 00:26:13;;;;;;;8.38;3.28;;;;;;;;;;4976072;29;20039;-75
2022/09/13 00:28:39;;;;;;;6.53;3.67;;;;;;;;;;4958150;29;20085;-74
2022/09/13 00:31:06;;;;;;;8.10;3.58;;;;;;;;;;4955299;28;20035;-76
2022/09/13 00:33:32;;;;;;;6.53;3.45;;;;;;;;;;4957824;28;20027;-76
2022/09/13 00:35:58;;;;;;;7.05;3.65;;;;;;;;;;4957772;28;20043;-78
2022/09/13 00:38:24;;;;;;;4.90;3.22;;;;;;;;;;4957338;29;20114;-77
2022/09/13 00:40:50;;;;;;;8.00;4.03;;;;;;;;;;4957598;28;20177;-77
2022/09/13 00:43:20;;;;;;;9.52;4.25;;;;;;;;;;4957318;28;20077;-79
2022/09/13 00:45:47;;;;;;;11.23;4.40;;;;;;;;;;4956656;29;20471;-77
2022/09/13 00:48:18;;;;;;;11.30;4.43;;;;;;;;;;4956250;28;20031;-77
2022/09/13 00:50:47;;;;;;;8.02;4.50;;;;;;;;;;4958198;28;20027;-79
2022/09/13 00:53:15;;;;;;;6.43;4.32;;;;;;;;;;4958646;29;20085;-78
2022/09/13 00:55:43;;;;;;;8.52;4.93;;;;;;;;;;4958279;28;20380;-78
2022/09/13 00:58:12;;;;;;;9.55;4.80;;;;;;;;;;4960998;28;20023;-77
2022/09/13 01:00:38;;;;;;;7.20;4.40;;;;;;;;;;4961668;28;20084;-77
2022/09/13 01:03:06;;;;;;;11.38;4.85;;;;;;;;;;4962336;29;20027;-76
2022/09/13 01:05:42;;;;;;;5.68;4.40;;;;;;;;;;4962438;29;20357;-75
2022/09/13 01:08:14;;;;;;;9.57;4.93;;;;;;;;;;4977257;28;20023;-73
2022/09/13 01:10:40;;;;;;;8.27;4.90;;;;;;;;;;4972348;28;20022;-73
2022/09/13 01:13:13;;;;;;;9.52;4.72;;;;;;;;;;4976769;28;20019;-74
2022/09/13 01:15:39;;;;;;;9.30;4.80;;;;;;;;;;4973964;28;20023;-76
2022/09/13 01:18:06;;;;;;;9.20;5.30;;;;;;;;;;4970872;28;20378;-77
2022/09/13 01:20:52;;;;;;;12.68;5.30;;;;;;;;;;4957893;28;20032;-76
2022/09/13 01:23:24;;;;;;;8.57;5.30;;;;;;;;;;4984284;28;20051;-77
2022/09/13 01:25:56;;;;;;;11.93;5.85;;;;;;;;;;4954990;29;20035;-78
2022/09/13 01:28:22;;;;;;;11.13;5.88;;;;;;;;;;4954722;28;20088;-79
2022/09/13 01:30:48;;;;;;;9.05;5.65;;;;;;;;;;4955153;28;20035;-78
2022/09/13 01:33:38;;;;;;;8.95;5.53;;;;;;;;;;4954858;28;20120;-77
2022/09/13 01:36:19;;;;;;;12.05;6.20;;;;;;;;;;4955811;29;20117;-78
2022/09/13 01:38:52;;;;;;;10.60;6.30;;;;;;;;;;4960870;28;20058;-76
2022/09/13 01:41:36;;;;;;;10.85;6.30;;;;;;;;;;4957267;28;20027;-77
2022/09/13 01:44:21;;;;;;;14.18;6.50;;;;;;;;;;4955043;29;20035;-77
2022/09/13 01:46:55;;;;;;;9.93;6.07;;;;;;;;;;4954995;29;20023;-76
2022/09/13 01:49:26;;;;;;;12.02;6.20;;;;;;;;;;4955150;28;20081;-76
2022/09/13 01:51:52;;;;;;;9.70;5.97;;;;;;;;;;4954403;28;20027;-78
2022/09/13 01:54:21;;;;;;;10.60;6.50;;;;;;;;;;4955116;28;20039;-77
2022/09/13 01:56:54;;;;;;;11.63;6.20;;;;;;;;;;4954782;29;20028;-76
2022/09/13 01:59:32;;;;;;;11.98;6.40;;;;;;;;;;4954872;29;20031;-77
2022/09/13 02:02:08;;;;;;;12.77;6.63;;;;;;;;;;4954831;28;20062;-76
2022/09/13 02:04:37;;;;;;;10.15;6.10;;;;;;;;;;4955771;28;20114;-76
2022/09/13 02:07:21;;;;;;;11.60;6.68;;;;;;;;;;4965987;28;20028;-75
2022/09/13 02:09:50;;;;;;;13.93;6.45;;;;;;;;;;4959493;29;20091;-77
2022/09/13 02:12:20;;;;;;;12.38;6.57;;;;;;;;;;4957049;28;20034;-78
2022/09/13 02:14:50;;;;;;;10.60;6.75;;;;;;;;;;4956037;28;20444;-77
2022/09/13 02:17:22;;;;;;;12.13;6.30;;;;;;;;;;4956233;29;20027;-78
2022/09/13 02:19:56;;;;;;;12.55;6.80;;;;;;;;;;4957714;29;20032;-77
2022/09/13 02:22:25;;;;;;;11.90;7.30;;;;;;;;;;4962737;28;20028;-77
2022/09/13 02:24:54;;;;;;;10.68;6.47;;;;;;;;;;4960081;28;20037;-76
2022/09/13 02:27:22;;;;;;;12.80;6.85;;;;;;;;;;4957646;29;20031;-77
2022/09/13 02:29:50;;;;;;;15.63;6.75;;;;;;;;;;4955163;28;20042;-78
2022/09/13 02:32:29;;;;;;;12.18;6.28;;;;;;;;;;4955039;28;20035;-77
2022/09/13 02:34:57;;;;;;;13.05;7.07;;;;;;;;;;4957832;28;20039;-78
2022/09/13 02:37:25;;;;;;;12.18;7.00;;;;;;;;;;4958750;28;20042;-78
2022/09/13 02:39:57;;;;;;;14.50;7.10;;;;;;;;;;4961814;28;20053;-76
2022/09/13 02:42:26;;;;;;;12.23;7.95;;;;;;;;;;4960016;28;20118;-77
2022/09/13 02:44:53;;;;;;;11.65;7.40;;;;;;;;;;4957472;29;20072;-78
2022/09/13 02:47:32;;;;;;;10.73;7.05;;;;;;;;;;4956869;28;20032;-76
2022/09/13 02:50:18;;;;;;;12.98;7.03;;;;;;;;;;4960125;28;20031;-77
2022/09/13 02:52:47;;;;;;;11.10;7.75;;;;;;;;;;4960859;28;20172;-76
2022/09/13 02:55:16;;;;;;;13.07;7.68;;;;;;;;;;4963399;28;20050;-76
2022/09/13 02:57:50;;;;;;;18.15;7.93;;;;;;;;;;4963226;28;20031;-77
2022/09/13 03:00:16;;;;;;;17.02;9.85;;;;;;;;;;4964322;28;20035;-77
2022/09/13 03:02:42;;;;;;;16.92;8.68;;;;;;;;;;4961161;28;20030;-77
2022/09/13 03:05:09;;;;;;;16.25;8.95;;;;;;;;;;4962009;28;20106;-77
2022/09/13 03:07:35;;;;;;;12.32;8.07;;;;;;;;;;4966171;28;20000;-76
2022/09/13 03:10:04;;;;;;;14.40;8.10;;;;;;;;;;4967123;28;20041;-76
2022/09/13 03:12:43;;;;;;;14.70;8.20;;;;;;;;;;4972357;28;20020;-73
2022/09/13 03:15:18;;;;;;;12.70;8.73;;;;;;;;;;4954549;28;20480;-76
2022/09/13 03:17:50;;;;;;;16.42;8.43;;;;;;;;;;4959765;28;20055;-77
2022/09/13 03:20:23;;;;;;;17.40;9.77;;;;;;;;;;4966627;28;20063;-78
2022/09/13 03:23:04;;;;;;;19.27;10.30;;;;;;;;;;4965140;28;20028;-78
2022/09/13 03:25:39;;;;;;;23.25;10.73;;;;;;;;;;4959142;28;20043;-80
2022/09/13 03:28:20;;;;;;;13.10;9.15;;;;;;;;;;4960117;28;20101;-77
2022/09/13 03:30:49;;;;;;;18.45;10.30;;;;;;;;;;4959945;28;20103;-77
2022/09/13 03:33:24;;;;;;;18.45;10.18;;;;;;;;;;4974918;28;20062;-76
2022/09/13 03:36:12;;;;;;;16.27;9.93;;;;;;;;;;4974374;28;20087;-76
2022/09/13 03:39:01;;;;;;;16.23;9.57;;;;;;;;;;4975203;28;20042;-75
2022/09/13 03:41:31;;;;;;;17.65;10.18;;;;;;;;;;4974568;28;20027;-75
2022/09/13 03:44:02;;;;;;;19.73;11.18;;;;;;;;;;4966607;28;20035;-78
2022/09/13 03:46:31;;;;;;;19.20;11.30;;;;;;;;;;4963816;28;20109;-77
2022/09/13 03:49:02;;;;;;;20.15;11.45;;;;;;;;;;4965245;28;20031;-80
2022/09/13 03:51:28;;;;;;;18.45;11.15;;;;;;;;;;4958659;28;20487;-77
2022/09/13 03:53:57;;;;;;;21.25;11.73;;;;;;;;;;4961326;28;20122;-80
2022/09/13 03:56:23;;;;;;;20.63;12.48;;;;;;;;;;4962858;28;20024;-80
2022/09/13 03:58:50;;;;;;;24.05;14.30;;;;;;;;;;4962154;28;20121;-80
2022/09/13 04:01:21;;;;;;;28.20;14.43;;;;;;;;;;4963830;28;20468;-79
2022/09/13 04:03:47;;;;;;;22.23;13.45;;;;;;;;;;4963409;28;20476;-77
2022/09/13 04:06:13;;;;;;;17.70;12.93;;;;;;;;;;4965329;28;20039;-79
2022/09/13 04:08:39;;;;;;;30.15;14.70;;;;;;;;;;4963000;28;20042;-77
2022/09/13 04:11:05;;;;;;;26.13;14.93;;;;;;;;;;4964924;28;20031;-79
2022/09/13 04:13:31;;;;;;;29.42;15.32;;;;;;;;;;4966135;28;20062;-78
2022/09/13 04:16:04;;;;;;;27.75;14.52;;;;;;;;;;4969211;28;20091;-77
2022/09/13 04:18:30;;;;;;;22.90;15.27;;;;;;;;;;4957717;28;20034;-77
2022/09/13 04:20:57;;;;;;;30.48;17.02;;;;;;;;;;4957822;28;20046;-79
2022/09/13 04:23:24;;;;;;;28.55;16.02;;;;;;;;;;4959559;28;20035;-79
2022/09/13 04:25:53;;;;;;;27.02;17.35;;;;;;;;;;4975818;28;20039;-75
2022/09/13 04:28:19;;;;;;;30.13;18.35;;;;;;;;;;4977511;28;20040;-76
2022/09/13 04:30:46;;;;;;;29.48;17.63;;;;;;;;;;4961284;28;20081;-78
2022/09/13 04:33:12;;;;;;;36.35;19.58;;;;;;;;;;4958606;28;20103;-77
2022/09/13 04:35:39;;;;;;;33.50;19.88;;;;;;;;;;4964457;28;20365;-77
2022/09/13 04:38:05;;;;;;;34.88;21.42;;;;;;;;;;4967277;28;20081;-76
2022/09/13 04:40:31;;;;;;;35.38;21.63;;;;;;;;;;4972165;28;20019;-75
2022/09/13 04:42:57;;;;;;;35.97;22.50;;;;;;;;;;4968430;28;20038;-75
2022/09/13 04:45:23;;;;;;;40.33;25.05;;;;;;;;;;4961297;28;20032;-75
2022/09/13 04:47:53;;;;;;;43.97;25.15;;;;;;;;;;4962119;28;20028;-78
2022/09/13 04:50:19;;;;;;;42.70;25.90;;;;;;;;;;4965216;28;20034;-79
2022/09/13 04:52:46;;;;;;;47.10;26.90;;;;;;;;;;4964242;28;20071;-77
2022/09/13 04:55:13;;;;;;;44.50;25.83;;;;;;;;;;4962595;28;20484;-78
2022/09/13 04:57:39;;;;;;;47.22;27.77;;;;;;;;;;4961511;28;20045;-79
2022/09/13 05:00:06;;;;;;;47.05;27.65;;;;;;;;;;4960967;28;20031;-78
2022/09/13 05:02:32;;;;;;;50.80;29.63;;;;;;;;;;4962004;28;20031;-77
2022/09/13 05:04:58;;;;;;;52.83;30.63;;;;;;;;;;4959667;28;20503;-77
2022/09/13 05:07:24;;;;;;;47.83;28.85;;;;;;;;;;4958828;28;20031;-78
2022/09/13 05:09:50;;;;;;;49.20;30.92;;;;;;;;;;4962089;28;20097;-77
2022/09/13 05:12:16;;;;;;;49.58;29.92;;;;;;;;;;4966389;28;20042;-77
2022/09/13 05:14:41;;;;;;;56.20;32.80;;;;;;;;;;4970755;28;20031;-77
2022/09/13 05:17:07;;;;;;;55.47;31.17;;;;;;;;;;4966040;28;20046;-79
2022/09/13 05:19:34;;;;;;;63.70;32.65;;;;;;;;;;4967894;28;20096;-76
2022/09/13 05:22:00;;;;;;;58.53;33.13;;;;;;;;;;4967001;28;20031;-75
2022/09/13 05:24:26;;;;;;;56.55;30.98;;;;;;;;;;4972094;28;20026;-77
2022/09/13 05:26:53;;;;;;;54.67;32.17;;;;;;;;;;4965646;29;20560;-76
2022/09/13 05:29:19;;;;;;;52.92;31.80;;;;;;;;;;4955959;28;20024;-77
2022/09/13 05:31:45;;;;;;;52.45;29.77;;;;;;;;;;4955821;28;20035;-77
2022/09/13 05:34:13;;;;;;;52.53;31.80;;;;;;;;;;4956862;28;20424;-78
2022/09/13 05:36:39;;;;;;;49.20;29.98;;;;;;;;;;4956313;28;20509;-79
2022/09/13 05:39:06;;;;;;;53.47;30.80;;;;;;;;;;4958456;28;20110;-78
2022/09/13 05:41:32;;;;;;;49.80;30.40;;;;;;;;;;4957436;28;20027;-79
2022/09/13 05:43:58;;;;;;;47.50;28.10;;;;;;;;;;4961895;28;20495;-79
2022/09/13 05:46:24;;;;;;;50.97;27.92;;;;;;;;;;4963293;28;20027;-80
2022/09/13 05:48:50;;;;;;;52.85;28.27;;;;;;;;;;4958530;28;20548;-76
2022/09/13 05:51:18;;;;;;;50.55;29.00;;;;;;;;;;4959683;28;20052;-77
2022/09/13 05:53:45;;;;;;;50.90;30.63;;;;;;;;;;4962460;28;20028;-76
2022/09/13 05:56:12;;;;;;;51.40;28.67;;;;;;;;;;4973974;28;20034;-74
2022/09/13 05:58:40;;;;;;;52.35;29.20;;;;;;;;;;4976862;28;20013;-74
2022/09/13 06:01:06;;;;;;;53.38;29.92;;;;;;;;;;4975824;28;20024;-74
2022/09/13 06:03:32;;;;;;;46.45;27.33;;;;;;;;;;4976625;28;20027;-75
2022/09/13 06:05:59;;;;;;;50.90;27.88;;;;;;;;;;4975175;28;20039;-77
2022/09/13 06:08:26;;;;;;;46.20;28.48;;;;;;;;;;4971001;28;20095;-80
2022/09/13 06:10:59;;;;;;;47.72;28.48;;;;;;;;;;4964778;28;20027;-78
2022/09/13 06:13:26;;;;;;;45.88;28.58;;;;;;;;;;4965146;28;20087;-77
2022/09/13 06:15:52;;;;;;;44.10;26.83;;;;;;;;;;4972239;28;20041;-79
2022/09/13 06:18:18;;;;;;;44.63;26.92;;;;;;;;;;4969126;28;20107;-78
2022/09/13 06:20:44;;;;;;;49.33;29.52;;;;;;;;;;4962790;28;20027;-82
2022/09/13 06:23:10;;;;;;;52.70;30.15;;;;;;;;;;4962645;28;20156;-77
2022/09/13 06:25:36;;;;;;;48.88;28.63;;;;;;;;;;4968913;28;20087;-77
2022/09/13 06:28:02;;;;;;;51.20;28.23;;;;;;;;;;4970378;28;20476;-80
2022/09/13 06:30:28;;;;;;;51.22;26.85;;;;;;;;;;4969411;28;20102;-76
2022/09/13 06:32:57;;;;;;;47.15;25.55;;;;;;;;;;4975646;23;20063;-74
2022/09/13 06:35:23;;;;;;;44.72;25.42;;;;;;;;;;4951776;28;20387;-75
2022/09/13 06:37:49;;;;;;;45.10;25.00;;;;;;;;;;4950835;28;20106;-76
2022/09/13 06:40:15;;;;;;;46.75;25.08;;;;;;;;;;4952564;28;20034;-74
2022/09/13 06:42:41;;;;;;;39.30;22.90;;;;;;;;;;4951881;28;20486;-73
2022/09/13 06:45:08;;;;;;;41.90;23.42;;;;;;;;;;4951329;28;20598;-76
2022/09/13 06:47:34;;;;;;;40.05;22.83;;;;;;;;;;4951163;29;20391;-74
2022/09/13 06:50:01;;;;;;;41.63;21.85;;;;;;;;;;4951520;28;20028;-73
2022/09/13 06:52:26;;;;;;;35.47;21.35;;;;;;;;;;4951013;28;20463;-75
2022/09/13 06:54:53;;;;;;;33.95;20.27;;;;;;;;;;4952531;28;20035;-74
2022/09/13 06:57:19;;;;;;;42.17;21.98;;;;;;;;;;4951868;28;20452;-75
2022/09/13 06:59:45;;;;;;;37.50;22.13;;;;;;;;;;4951778;28;20503;-75
2022/09/13 07:02:13;;;;;;;37.35;20.23;;;;;;;;;;4952359;28;20031;-74
2022/09/13 07:04:39;;;;;;;36.92;19.35;;;;;;;;;;4951840;28;20019;-76
2022/09/13 07:07:05;;;;;;;33.20;17.63;;;;;;;;;;4951755;28;20023;-73
2022/09/13 07:09:33;;;;;;;35.75;17.88;;;;;;;;;;4952061;28;20559;-77
2022/09/13 07:11:59;;;;;;;32.78;16.92;;;;;;;;;;4951783;28;20027;-74
2022/09/13 07:14:26;;;;;;;28.35;16.15;;;;;;;;;;4953068;28;20034;-76
2022/09/13 07:16:52;;;;;;;34.47;15.45;;;;;;;;;;4955846;29;20369;-74
2022/09/13 07:19:21;;;;;;;35.88;16.05;;;;;;;;;;4954315;28;20028;-75
2022/09/13 07:21:48;;;;;;;28.60;14.15;;;;;;;;;;4957261;28;20026;-75
2022/09/13 07:24:14;;;;;;;32.03;13.90;;;;;;;;;;4956999;29;20075;-76
2022/09/13 07:26:40;;;;;;;31.85;13.77;;;;;;;;;;4958153;28;20023;-76
2022/09/13 07:29:08;;;;;;;27.50;13.00;;;;;;;;;;4959325;28;20523;-75
2022/09/13 07:31:34;;;;;;;20.75;12.35;;;;;;;;;;4960418;28;20557;-75
2022/09/13 07:34:01;;;;;;;25.48;12.32;;;;;;;;;;4959812;29;20032;-75
2022/09/13 07:36:28;;;;;;;20.98;10.75;;;;;;;;;;4955859;29;20034;-75
2022/09/13 07:38:54;;;;;;;27.48;11.43;;;;;;;;;;4955320;29;20126;-75
2022/09/13 07:41:21;;;;;;;23.75;10.00;;;;;;;;;;4959294;28;20035;-73
2022/09/13 07:43:47;;;;;;;23.92;10.27;;;;;;;;;;4953979;28;20031;-75
2022/09/13 07:46:14;;;;;;;22.55;10.20;;;;;;;;;;4953349;29;20461;-75
2022/09/13 07:48:41;;;;;;;30.65;10.50;;;;;;;;;;4954539;28;20504;-76
2022/09/13 07:51:08;;;;;;;25.25;11.23;;;;;;;;;;4951165;28;20024;-74
2022/09/13 07:53:35;;;;;;;22.25;10.07;;;;;;;;;;4952270;29;20113;-76
2022/09/13 07:56:02;;;;;;;23.13;10.48;;;;;;;;;;4950585;28;20089;-75
2022/09/13 07:58:28;;;;;;;19.40;8.65;;;;;;;;;;4951236;29;20024;-76
2022/09/13 08:00:55;;;;;;;23.85;9.43;;;;;;;;;;4950360;28;20102;-75
2022/09/13 08:03:20;;;;;;;21.92;8.52;;;;;;;;;;4949330;28;20015;-72
2022/09/13 08:05:46;;;;;;;23.20;7.35;;;;;;;;;;4952696;29;20419;-73
2022/09/13 08:08:12;;;;;;;24.90;6.65;;;;;;;;;;4951976;29;20027;-73
2022/09/13 08:10:38;;;;;;;21.80;5.40;;;;;;;;;;4953424;29;20045;-73
2022/09/13 08:13:04;;;;;;;17.08;5.10;;;;;;;;;;4953767;28;20154;-76
2022/09/13 08:15:30;;;;;;;20.60;5.07;;;;;;;;;;4953578;29;20027;-73
2022/09/13 08:17:56;;;;;;;16.63;3.97;;;;;;;;;;4954131;29;20055;-73
2022/09/13 08:20:22;;;;;;;17.13;3.60;;;;;;;;;;4954240;29;20637;-73
2022/09/13 08:22:48;;;;;;;19.45;3.35;;;;;;;;;;4953477;28;20113;-73
2022/09/13 08:25:14;;;;;;;12.55;2.88;;;;;;;;;;4953391;28;20031;-76
2022/09/13 08:27:40;;;;;;;13.65;2.30;;;;;;;;;;4953847;29;20023;-71
2022/09/13 08:30:06;;;;;;;14.75;2.10;;;;;;;;;;4954006;29;20028;-71
2022/09/13 08:32:32;;;;;;;9.30;1.60;;;;;;;;;;4953516;28;20468;-73
2022/09/13 08:34:58;;;;;;;12.27;1.85;;;;;;;;;;4953731;29;20058;-72
2022/09/13 08:37:24;;;;;;;13.18;1.70;;;;;;;;;;4952362;29;20038;-73
2022/09/13 08:39:50;;;;;;;13.52;2.28;;;;;;;;;;4954088;28;20031;-72
2022/09/13 08:42:23;;;;;;;17.90;1.92;;;;;;;;;;4952840;28;20035;-74
2022/09/13 08:44:54;;;;;;;12.55;1.70;;;;;;;;;;4954547;28;20033;-76
2022/09/13 08:47:34;;;;;;;6.63;1.42;;;;;;;;;;4954328;29;20098;-76
2022/09/13 08:50:11;;;;;;;14.38;1.67;;;;;;;;;;4954015;29;20102;-74
2022/09/13 08:53:04;;;;;;;9.88;1.58;;;;;;;;;;4954158;28;20504;-75
2022/09/13 08:55:53;;;;;;;9.20;1.50;;;;;;;;;;4954352;28;20424;-76
2022/09/13 08:58:29;;;;;;;9.52;1.33;;;;;;;;;;4958463;28;20036;-75
2022/09/13 09:01:02;;;;;;;10.38;1.30;;;;;;;;;;4953123;28;20495;-75
2022/09/13 09:03:33;;;;;;;10.23;2.67;;;;;;;;;;4953923;29;20031;-76
2022/09/13 09:05:59;;;;;;;7.97;1.98;;;;;;;;;;4952572;28;20020;-76
2022/09/13 09:08:30;;;;;;;8.82;1.50;;;;;;;;;;4953940;28;20032;-75
2022/09/13 09:10:56;;;;;;;10.88;1.73;;;;;;;;;;4953900;28;20019;-75
2022/09/13 09:13:25;;;;;;;8.40;1.67;;;;;;;;;;4954916;28;20085;-75
2022/09/13 09:15:56;;;;;;;13.68;2.85;;;;;;;;;;4954238;29;20031;-75
2022/09/13 09:18:24;;;;;;;7.13;1.35;;;;;;;;;;4958047;28;20032;-73
2022/09/13 09:20:55;;;;;;;10.18;1.42;;;;;;;;;;4957813;28;20491;-75
2022/09/13 09:23:24;;;;;;;14.55;1.80;;;;;;;;;;4959568;28;20035;-74
2022/09/13 09:25:51;;;;;;;15.02;1.80;;;;;;;;;;4960884;28;20038;-75
2022/09/13 09:28:18;;;;;;;10.82;1.58;;;;;;;;;;4964536;28;20050;-74
2022/09/13 09:30:50;;;;;;;11.80;1.40;;;;;;;;;;4965034;28;20050;-74
2022/09/13 09:33:39;;;;;;;11.35;1.55;;;;;;;;;;4966158;29;20051;-74
2022/09/13 09:36:14;;;;;;;3.78;1.30;;;;;;;;;;4988612;28;20102;-74
2022/09/13 09:38:42;;;;;;;8.55;1.50;;;;;;;;;;4971233;28;20098;-75
2022/09/13 09:41:25;;;;;;;5.20;1.38;;;;;;;;;;4969940;28;20472;-73
2022/09/13 09:44:10;;;;;;;11.13;1.70;;;;;;;;;;4971557;29;20027;-73
2022/09/13 09:46:36;;;;;;;;;;;;;;;;;;4973062;29;20031;-75
2022/09/13 09:50:07;;;;;;;7.78;1.48;;;;;;;;;;4971945;28;19970;-75
2022/09/13 09:51:57;;;;;;;5.88;1.40;;;;;;;;;;4974433;28;20035;-76
2022/09/13 09:54:27;;;;;;;12.38;1.70;;;;;;;;;;4975126;28;20087;-75
2022/09/13 09:56:54;;;;;;;10.35;1.75;;;;;;;;;;4973481;28;20023;-74
2022/09/13 09:59:32;;;;;;;14.23;1.83;;;;;;;;;;4969682;29;20027;-75
2022/09/13 10:02:06;;;;;;;11.75;1.77;;;;;;;;;;4952612;28;20027;-75
2022/09/13 10:04:32;;;;;;;;;;;;;;;;;;4952046;29;20461;-76
2022/09/13 10:07:31;;;;;;;11.50;2.20;;;;;;;;;;4952381;29;19946;-75
2022/09/13 10:10:05;;;;;;;15.32;2.00;;;;;;;;;;4980087;28;20032;-74
2022/09/13 10:12:33;;;;;;;11.73;2.10;;;;;;;;;;4971141;28;20023;-75
2022/09/13 10:15:16;;;;;;;16.95;2.08;;;;;;;;;;4968639;29;20050;-76
2022/09/13 10:17:42;;;;;;;16.50;2.15;;;;;;;;;;4955298;28;20050;-76
2022/09/13 10:20:14;;;;;;;12.20;1.83;;;;;;;;;;4953726;28;20066;-76
2022/09/13 10:22:41;;;;;;;9.68;2.13;;;;;;;;;;4953348;28;20031;-75
2022/09/13 10:25:26;;;;;;;14.38;2.60;;;;;;;;;;4960178;29;20020;-75
2022/09/13 10:27:54;;;;;;;11.40;1.70;;;;;;;;;;4957861;29;20031;-75
2022/09/13 10:30:30;;;;;;;9.40;1.63;;;;;;;;;;4965563;29;20077;-75
2022/09/13 10:32:56;;;;;;;12.93;1.90;;;;;;;;;;4965901;28;20119;-74
2022/09/13 10:35:23;;;;;;;12.20;1.70;;;;;;;;;;4969233;28;20031;-75
2022/09/13 10:37:49;;;;;;;10.25;1.60;;;;;;;;;;4969944;28;20039;-75
2022/09/13 10:40:18;;;;;;;11.35;1.60;;;;;;;;;;4963923;28;20087;-75
2022/09/13 10:42:52;;;;;;;10.75;1.65;;;;;;;;;;4962011;28;20089;-76
2022/09/13 10:45:18;;;;;;;;;;;;;;;;;;4958163;29;20049;-74
2022/09/13 10:47:46;;;;;;;15.75;2.47;;;;;;;;;;4956178;28;20367;-73
2022/09/13 10:50:12;;;;;;;13.98;1.92;;;;;;;;;;4950914;28;20019;-75
2022/09/13 10:52:43;;;;;;;10.20;1.67;;;;;;;;;;4952219;28;20042;-75
2022/09/13 10:55:18;;;;;;;14.30;1.90;;;;;;;;;;4951906;29;20031;-74
2022/09/13 10:57:44;;;;;;;8.75;1.80;;;;;;;;;;4951457;29;20088;-74
2022/09/13 11:00:11;;;;;;;8.93;1.65;;;;;;;;;;4950277;28;20077;-76
2022/09/13 11:02:46;;;;;;;13.73;1.50;;;;;;;;;;4951562;28;20027;-74
2022/09/13 11:05:26;;;;;;;9.57;1.70;;;;;;;;;;4951502;29;20392;-75
2022/09/13 11:08:11;;;;;;;11.85;2.30;;;;;;;;;;4951362;28;20030;-75
2022/09/13 11:10:54;;;;;;;8.13;1.42;;;;;;;;;;4951439;28;20023;-75
2022/09/13 11:13:31;;;;;;;7.72;2.03;;;;;;;;;;4951555;28;20031;-76
2022/09/13 11:16:02;;;;;;;10.80;1.70;;;;;;;;;;4951508;29;20034;-73
2022/09/13 11:18:31;;;;;;;11.38;1.60;;;;;;;;;;4951600;29;20046;-75
2022/09/13 11:20:57;;;;;;;11.75;1.85;;;;;;;;;;4951402;28;20027;-75
2022/09/13 11:23:34;;;;;;;8.85;1.75;;;;;;;;;;4954288;29;20034;-75
2022/09/13 11:26:05;;;;;;;8.90;1.60;;;;;;;;;;4954273;29;20473;-74
2022/09/13 11:28:31;;;;;;;10.27;1.70;;;;;;;;;;4949641;28;20077;-76
2022/09/13 11:31:18;;;;;;;8.85;2.25;;;;;;;;;;4950949;28;20102;-77
2022/09/13 11:33:51;;;;;;;16.23;2.10;;;;;;;;;;4951364;29;20038;-74
2022/09/13 11:36:37;;;;;;;11.25;1.55;;;;;;;;;;4951350;29;20485;-74
2022/09/13 11:39:22;;;;;;;7.00;1.50;;;;;;;;;;4953446;28;20697;-76
2022/09/13 11:41:53;;;;;;;11.70;1.60;;;;;;;;;;4954687;28;20038;-74
2022/09/13 11:44:19;;;;;;;14.30;2.05;;;;;;;;;;4954706;29;20028;-74
2022/09/13 11:46:50;;;;;;;7.25;1.67;;;;;;;;;;4954142;28;20031;-75
2022/09/13 11:49:35;;;;;;;10.85;2.38;;;;;;;;;;4954770;29;20425;-77
2022/09/13 11:52:16;;;;;;;13.88;2.13;;;;;;;;;;4953803;28;20027;-76
2022/09/13 11:54:46;;;;;;;16.15;2.88;;;;;;;;;;4954615;29;20473;-82
2022/09/13 11:57:38;;;;;;;10.13;2.33;;;;;;;;;;4954011;28;20027;-74
2022/09/13 12:00:11;;;;;;;7.82;2.15;;;;;;;;;;4956251;28;20505;-73
2022/09/13 12:02:42;;;;;;;11.50;2.20;;;;;;;;;;4953516;28;20027;-76
2022/09/13 12:05:21;;;;;;;10.70;2.13;;;;;;;;;;4954779;28;20023;-74
2022/09/13 12:08:06;;;;;;;11.32;2.05;;;;;;;;;;4953057;28;20020;-76
2022/09/13 12:10:38;;;;;;;11.95;1.88;;;;;;;;;;4955588;28;20027;-75
2022/09/13 12:13:07;;;;;;;10.02;1.98;;;;;;;;;;4954279;28;20058;-74
2022/09/13 12:15:37;;;;;;;12.00;2.13;;;;;;;;;;4955779;29;20049;-75
2022/09/13 12:18:18;;;;;;;11.27;2.22;;;;;;;;;;4954977;28;20020;-77
2022/09/13 12:20:50;;;;;;;10.70;1.58;;;;;;;;;;4953320;28;20073;-73
2022/09/13 12:23:43;;;;;;;12.02;2.05;;;;;;;;;;4955588;29;20034;-75
2022/09/13 12:26:15;;;;;;;10.05;2.20;;;;;;;;;;4955823;28;20488;-74
2022/09/13 12:29:01;;;;;;;13.82;1.90;;;;;;;;;;4956095;29;20073;-75
2022/09/13 12:31:28;;;;;;;10.30;1.60;;;;;;;;;;4956796;28;20043;-74
2022/09/13 12:33:54;;;;;;;11.98;2.22;;;;;;;;;;4955747;29;20105;-74
2022/09/13 12:36:38;;;;;;;11.40;1.73;;;;;;;;;;4954889;29;20121;-75
2022/09/13 12:39:28;;;;;;;10.15;2.30;;;;;;;;;;4954889;29;20034;-75
2022/09/13 12:42:06;;;;;;;11.05;2.13;;;;;;;;;;4972661;28;20108;-74
2022/09/13 12:44:32;;;;;;;6.15;1.52;;;;;;;;;;4955976;28;20026;-75
2022/09/13 12:47:01;;;;;;;9.80;2.03;;;;;;;;;;4955901;29;20023;-74
2022/09/13 12:49:39;;;;;;;15.02;2.28;;;;;;;;;;4955098;28;20115;-74
2022/09/13 12:52:11;;;;;;;13.25;1.77;;;;;;;;;;4987408;23;20449;-78
2022/09/13 12:54:56;;;;;;;16.02;2.15;;;;;;;;;;4970369;29;20062;-81
2022/09/13 12:57:29;;;;;;;15.35;1.95;;;;;;;;;;4967180;28;20051;-78
2022/09/13 13:00:01;;;;;;;7.25;1.85;;;;;;;;;;4965655;28;20027;-77
2022/09/13 13:02:27;;;;;;;10.45;1.92;;;;;;;;;;4986263;28;20034;-78
2022/09/13 13:04:56;;;;;;;9.13;1.92;;;;;;;;;;4970554;28;20039;-78
2022/09/13 13:07:23;;;;;;;11.73;2.65;;;;;;;;;;4970539;29;20023;-77
2022/09/13 13:09:51;;;;;;;12.43;2.45;;;;;;;;;;4970932;28;20023;-76
2022/09/13 13:12:35;;;;;;;11.02;2.15;;;;;;;;;;4968595;28;20045;-76
2022/09/13 13:15:05;;;;;;;9.57;1.80;;;;;;;;;;4970722;28;20027;-79
2022/09/13 13:17:39;;;;;;;12.20;2.53;;;;;;;;;;4968929;29;20035;-77
2022/09/13 13:20:24;;;;;;;9.90;1.90;;;;;;;;;;4967759;28;20027;-80
2022/09/13 13:22:50;;;;;;;16.48;3.22;;;;;;;;;;4966059;28;20065;-78
2022/09/13 13:25:31;;;;;;;11.45;1.88;;;;;;;;;;4967086;28;20850;-76
2022/09/13 13:27:57;;;;;;;11.43;2.20;;;;;;;;;;4965231;29;20031;-77
2022/09/13 13:30:41;;;;;;;10.57;2.00;;;;;;;;;;4964670;28;20033;-77
2022/09/13 13:33:18;;;;;;;14.93;2.15;;;;;;;;;;4967890;28;20034;-77
2022/09/13 13:35:44;;;;;;;11.95;2.42;;;;;;;;;;4966460;28;20099;-80
2022/09/13 13:38:33;;;;;;;13.73;2.00;;;;;;;;;;4967754;28;20130;-77
2022/09/13 13:41:08;;;;;;;14.13;2.10;;;;;;;;;;4964143;28;20393;-78
2022/09/13 13:43:34;;;;;;;8.65;2.00;;;;;;;;;;4970047;28;20055;-80
2022/09/13 13:46:12;;;;;;;10.90;1.90;;;;;;;;;;4972865;28;20255;-76
2022/09/13 13:48:40;;;;;;;13.45;1.95;;;;;;;;;;4973809;28;20065;-76
2022/09/13 13:51:26;;;;;;;9.38;1.92;;;;;;;;;;4965813;28;20074;-78
2022/09/13 13:53:54;;;;;;;11.65;1.70;;;;;;;;;;4970118;28;20037;-76
2022/09/13 13:56:23;;;;;;;18.45;2.20;;;;;;;;;;4972728;28;20092;-79
2022/09/13 13:58:49;;;;;;;16.27;2.30;;;;;;;;;;4976161;28;20012;-77
2022/09/13 14:01:18;;;;;;;16.75;2.28;;;;;;;;;;4974888;28;20020;-77
2022/09/13 14:04:03;;;;;;;12.88;2.20;;;;;;;;;;4973727;28;20043;-79
2022/09/13 14:06:33;;;;;;;15.50;2.08;;;;;;;;;;4973419;28;20038;-79
2022/09/13 14:08:59;;;;;;;12.15;2.17;;;;;;;;;;4969361;28;20027;-78
2022/09/13 14:11:45;;;;;;;13.35;2.47;;;;;;;;;;4963235;28;20472;-76
2022/09/13 14:14:14;;;;;;;8.68;2.15;;;;;;;;;;4967967;28;20023;-75
2022/09/13 14:16:58;;;;;;;16.83;2.65;;;;;;;;;;4970186;28;20130;-76
2022/09/13 14:19:30;;;;;;;11.48;1.90;;;;;;;;;;4964965;28;20027;-77
2022/09/13 14:22:14;;;;;;;13.55;2.08;;;;;;;;;;4961091;28;20387;-78
2022/09/13 14:24:42;;;;;;;13.15;2.17;;;;;;;;;;4964549;28;20043;-77
2022/09/13 14:27:14;;;;;;;15.38;2.05;;;;;;;;;;4967606;28;20023;-78
2022/09/13 14:29:43;;;;;;;16.02;2.92;;;;;;;;;;4964249;28;20031;-77
2022/09/13 14:32:13;;;;;;;14.90;2.70;;;;;;;;;;4965017;28;20030;-80
2022/09/13 14:34:39;;;;;;;13.02;2.15;;;;;;;;;;4959833;28;20023;-80
2022/09/13 14:37:15;;;;;;;12.60;2.33;;;;;;;;;;4961546;28;20031;-81
2022/09/13 14:39:53;;;;;;;10.35;3.10;;;;;;;;;;4967124;28;20055;-77
2022/09/13 14:42:19;;;;;;;17.33;2.80;;;;;;;;;;4972957;28;20038;-76
2022/09/13 14:44:48;;;;;;;12.35;2.17;;;;;;;;;;4972863;28;20087;-78
2022/09/13 14:47:20;;;;;;;13.38;2.22;;;;;;;;;;4970818;28;20031;-77
2022/09/13 14:49:49;;;;;;;11.27;2.05;;;;;;;;;;4969178;28;20085;-76